Time;durP1;ratioP1;P1;durP2;ratioP2;P2;SDS_P1;SDS_P2;PMS_P1;PMS_P2;Temp;Humidity;BMP_temperature;BMP_pressure;BME280_temperature;BME280_humidity;BME280_pressure;Samples;Min_cycle;Max_cycle;Signal;HPM_P1;HPM_P2
2022/12/07 08:19:22;;;;;;;2.38;0.80;;;13.60;67.10;;;;;;5069538;28;20382;-81
2022/12/07 08:21:48;;;;;;;2.78;0.95;;;14.00;64.70;;;;;;5069520;28;20480;-78
2022/12/07 08:24:14;;;;;;;1.40;0.60;;;13.90;64.50;;;;;;5069378;28;20027;-78
2022/12/07 08:26:40;;;;;;;3.22;1.02;;;13.90;64.80;;;;;;5069350;28;20386;-78
2022/12/07 08:29:05;;;;;;;1.50;0.70;;;13.90;79.60;;;;;;5069348;28;20051;-79
2022/12/07 08:31:31;;;;;;;0.98;0.70;;;13.80;64.50;;;;;;5069262;28;20550;-79
2022/12/07 08:33:57;;;;;;;2.15;0.75;;;13.80;90.30;;;;;;5069219;28;20028;-80
2022/12/07 08:36:23;;;;;;;1.77;0.68;;;13.80;64.40;;;;;;5069311;28;20024;-80
2022/12/07 08:38:49;;;;;;;3.25;1.10;;;13.90;64.30;;;;;;5069145;28;20044;-81
2022/12/07 08:41:15;;;;;;;1.40;0.80;;;13.80;89.00;;;;;;5069062;28;20032;-78
2022/12/07 08:43:41;;;;;;;2.53;1.00;;;13.90;64.10;;;;;;5069054;28;20032;-78
2022/12/07 08:46:09;;;;;;;2.95;1.00;;;13.90;64.10;;;;;;5068967;28;20017;-79
2022/12/07 08:48:42;;;;;;;1.88;1.23;;;13.90;64.00;;;;;;5068960;28;20051;-79
2022/12/07 08:51:08;;;;;;;4.70;1.10;;;13.90;64.70;;;;;;5069071;28;20074;-79
2022/12/07 08:53:36;;;;;;;2.58;1.08;;;13.90;63.90;;;;;;5068959;28;20033;-80
2022/12/07 08:56:03;;;;;;;3.97;1.23;;;13.90;63.70;;;;;;5069108;28;20116;-81
2022/12/07 08:58:29;;;;;;;5.82;1.50;;;13.90;63.60;;;;;;5068837;28;20028;-79
2022/12/07 09:00:55;;;;;;;1.52;0.82;;;13.90;63.70;;;;;;5069022;28;20087;-81
2022/12/07 09:03:20;;;;;;;4.10;1.20;;;13.80;63.70;;;;;;5068803;28;20078;-81
2022/12/07 09:05:47;;;;;;;4.35;1.25;;;13.80;63.70;;;;;;5067514;28;20483;-80
2022/12/07 09:08:12;;;;;;;4.88;1.65;;;13.80;63.70;;;;;;5068660;28;20386;-80
2022/12/07 09:10:38;;;;;;;2.78;1.35;;;13.80;63.80;;;;;;5068634;28;20021;-80
2022/12/07 09:13:04;;;;;;;4.55;1.30;;;13.90;63.80;;;;;;5068644;28;20568;-80
2022/12/07 09:15:31;;;;;;;6.53;1.60;;;13.90;63.70;;;;;;5068477;28;20107;-80
2022/12/07 09:17:56;;;;;;;3.00;1.35;;;13.90;63.80;;;;;;5066923;28;20041;-81
2022/12/07 09:20:22;;;;;;;5.10;1.20;;;13.90;63.70;;;;;;5068370;28;20066;-80
2022/12/07 09:22:47;;;;;;;3.20;1.42;;;13.90;63.70;;;;;;5068422;28;20108;-80
2022/12/07 09:25:13;;;;;;;4.43;1.40;;;13.90;64.40;;;;;;5068398;28;20027;-80
2022/12/07 09:27:39;;;;;;;4.10;1.60;;;13.90;63.80;;;;;;5068354;28;20036;-80
2022/12/07 09:30:05;;;;;;;2.97;2.50;;;13.90;63.90;;;;;;5058644;28;20055;-80
2022/12/07 09:32:31;;;;;;;4.18;2.80;;;13.90;63.90;;;;;;5054951;28;20108;-79
2022/12/07 09:34:57;;;;;;;3.17;1.48;;;13.80;63.90;;;;;;5055028;28;20140;-80
2022/12/07 09:37:22;;;;;;;5.07;1.52;;;13.80;63.80;;;;;;5054848;28;20032;-80
2022/12/07 09:39:48;;;;;;;2.50;1.13;;;13.80;63.80;;;;;;5054846;28;20036;-81
2022/12/07 09:42:32;;;;;;;3.60;1.55;;;13.90;63.80;;;;;;5053604;28;20083;-80
2022/12/07 09:44:58;;;;;;;3.90;1.48;;;13.90;63.80;;;;;;5054873;28;20112;-80
2022/12/07 09:47:24;;;;;;;3.25;1.40;;;13.90;64.00;;;;;;5054744;28;20025;-81
2022/12/07 09:49:50;;;;;;;1.92;1.30;;;13.90;64.10;;;;;;5054740;28;20119;-80
2022/12/07 09:52:27;;;;;;;4.03;0.90;;;13.80;88.20;;;;;;5054591;28;20110;-82
2022/12/07 09:54:53;;;;;;;1.90;1.20;;;13.80;64.20;;;;;;5054653;28;20079;-80
2022/12/07 09:57:34;;;;;;;2.15;1.27;;;13.90;64.10;;;;;;5054464;28;20068;-80
2022/12/07 10:00:16;;;;;;;3.60;1.40;;;13.80;82.30;;;;;;5054551;28;20048;-80
2022/12/07 10:02:46;;;;;;;2.17;1.00;;;13.80;64.20;;;;;;5054402;28;20526;-80
2022/12/07 10:05:24;;;;;;;5.15;1.50;;;13.90;64.40;;;;;;5054569;28;20025;-76
2022/12/07 10:07:50;;;;;;;2.17;1.20;;;13.90;64.20;;;;;;5054488;28;20112;-80
2022/12/07 10:10:23;;;;;;;3.08;1.40;;;13.90;64.50;;;;;;5054633;28;20158;-80
2022/12/07 10:12:55;;;;;;;1.75;1.20;;;13.90;64.50;;;;;;5054343;28;20062;-80
2022/12/07 10:15:20;;;;;;;3.90;1.10;;;13.90;63.90;;;;;;5053062;28;20029;-80
2022/12/07 10:17:51;;;;;;;2.67;1.40;;;13.90;64.50;;;;;;5053939;28;20052;-80
2022/12/07 10:20:21;;;;;;;2.78;1.50;;;13.90;64.40;;;;;;5054193;28;20033;-80
2022/12/07 10:22:56;;;;;;;2.97;1.33;;;13.90;64.50;;;;;;5052873;28;20094;-80
2022/12/07 10:25:25;;;;;;;1.73;1.17;;;13.90;64.50;;;;;;5054140;28;20056;-75
2022/12/07 10:27:59;;;;;;;1.83;1.40;;;13.90;64.50;;;;;;5052712;28;20024;-75
2022/12/07 10:30:25;;;;;;;2.50;1.23;;;13.90;64.50;;;;;;5053899;28;20025;-76
2022/12/07 10:32:50;;;;;;;2.42;1.30;;;13.90;64.50;;;;;;5053891;28;20094;-75
2022/12/07 10:35:29;;;;;;;2.00;1.33;;;13.90;64.50;;;;;;5052548;28;20118;-75
2022/12/07 10:37:57;;;;;;;2.33;1.75;;;13.90;64.40;;;;;;5052373;28;20430;-75
2022/12/07 10:40:23;;;;;;;3.33;1.90;;;14.00;64.30;;;;;;5051968;28;20017;-75
2022/12/07 10:43:20;;;;;;;2.72;1.50;;;14.00;64.20;;;;;;5053282;28;20033;-75
2022/12/07 10:46:13;;;;;;;2.95;1.70;;;14.10;64.00;;;;;;5051925;28;20037;-75
2022/12/07 10:48:55;;;;;;;2.00;1.88;;;14.20;63.60;;;;;;5053631;28;20036;-75
2022/12/07 10:51:41;;;;;;;2.42;2.22;;;14.30;63.50;;;;;;5053667;28;20040;-75
2022/12/07 10:54:21;;;;;;;5.78;1.80;;;14.30;63.40;;;;;;5051701;28;20041;-75
2022/12/07 10:57:05;;;;;;;2.42;1.95;;;14.40;63.10;;;;;;5053489;28;20463;-75
2022/12/07 10:59:45;;;;;;;3.83;1.15;;;14.50;63.00;;;;;;5053577;28;20036;-75
2022/12/07 11:02:13;;;;;;;;;;;14.50;62.80;;;;;;5052640;28;20095;-79
2022/12/07 11:04:58;;;;;;;2.13;1.20;;;14.50;62.90;;;;;;5053318;28;20378;-80
2022/12/07 11:07:56;;;;;;;2.53;1.88;;;14.50;63.10;;;;;;5053263;28;20033;-80
2022/12/07 11:10:47;;;;;;;2.05;1.85;;;14.50;63.10;;;;;;5053200;28;20079;-80
2022/12/07 11:13:23;;;;;;;2.70;1.38;;;14.50;63.10;;;;;;5053141;28;20386;-79
2022/12/07 11:16:01;;;;;;;2.03;1.30;;;14.60;63.00;;;;;;5053132;28;20090;-79
2022/12/07 11:18:56;;;;;;;2.45;1.20;;;14.60;63.00;;;;;;5052750;28;20407;-79
2022/12/07 11:21:56;;;;;;;1.65;1.05;;;14.60;63.10;;;;;;5053026;28;20029;-80
2022/12/07 11:25:04;;;;;;;1.52;1.20;;;14.60;63.20;;;;;;5052947;28;20033;-80
2022/12/07 11:27:32;;;;;;;3.00;1.13;;;14.60;76.80;;;;;;5042549;28;20059;-80
2022/12/07 11:30:21;;;;;;;2.30;1.20;;;14.60;63.60;;;;;;5052830;28;20036;-80
2022/12/07 11:32:59;;;;;;;2.83;1.17;;;14.60;63.70;;;;;;5052798;28;20017;-80
2022/12/07 11:35:56;;;;;;;2.25;1.20;;;14.60;63.90;;;;;;5051587;28;20037;-80
2022/12/07 11:38:43;;;;;;;2.15;1.23;;;14.50;64.10;;;;;;5051447;28;20506;-79
2022/12/07 11:41:15;;;;;;;1.90;0.95;;;14.50;78.00;;;;;;5052814;28;20029;-80
2022/12/07 11:44:07;;;;;;;3.17;1.17;;;14.50;64.50;;;;;;5051343;28;20491;-80
2022/12/07 11:46:47;;;;;;;1.30;1.10;;;14.50;64.50;;;;;;5051275;28;20071;-80
2022/12/07 11:49:42;;;;;;;2.28;1.08;;;14.50;64.60;;;;;;5051328;28;20427;-80
2022/12/07 11:52:40;;;;;;;1.17;0.80;;;14.40;78.80;;;;;;5052137;28;20025;-80
2022/12/07 11:55:20;;;;;;;3.45;1.20;;;14.50;64.80;;;;;;5048806;28;20041;-80
2022/12/07 11:57:51;;;;;;;2.03;1.33;;;14.50;64.90;;;;;;5052389;28;20033;-79
2022/12/07 12:00:18;;;;;;;3.50;1.17;;;14.50;64.90;;;;;;5051119;28;20025;-79
2022/12/07 12:02:49;;;;;;;4.13;1.20;;;14.50;64.30;;;;;;5052335;28;20029;-79
2022/12/07 12:05:23;;;;;;;1.52;1.05;;;14.50;64.90;;;;;;5051073;28;20036;-79
2022/12/07 12:08:05;;;;;;;2.70;1.00;;;14.60;64.80;;;;;;5052242;28;20017;-79
2022/12/07 12:11:03;;;;;;;1.20;0.70;;;14.60;64.70;;;;;;5052294;28;20025;-79
2022/12/07 12:13:56;;;;;;;1.60;1.02;;;14.60;64.60;;;;;;5051021;28;20119;-80
2022/12/07 12:16:59;;;;;;;2.28;1.00;;;14.60;66.70;;;;;;5051041;28;20037;-77
2022/12/07 12:19:35;;;;;;;2.55;1.30;;;14.60;64.70;;;;;;5052191;28;20037;-77
2022/12/07 12:22:12;;;;;;;2.22;1.00;;;14.60;64.40;;;;;;5050819;28;20495;-76
2022/12/07 12:24:40;;;;;;;2.00;0.95;;;14.60;64.90;;;;;;5050878;28;20021;-76
2022/12/07 12:27:10;;;;;;;1.85;1.08;;;14.50;64.90;;;;;;5052052;28;20067;-77
2022/12/07 12:29:41;;;;;;;3.65;1.27;;;14.60;65.10;;;;;;5052107;28;20026;-77
2022/12/07 12:32:16;;;;;;;1.85;1.00;;;14.50;65.00;;;;;;5052005;28;20051;-77
2022/12/07 12:35:00;;;;;;;2.22;1.02;;;14.60;65.00;;;;;;5052062;28;20120;-76
2022/12/07 12:37:39;;;;;;;2.33;0.90;;;14.50;65.00;;;;;;5051932;28;20021;-76
2022/12/07 12:40:16;;;;;;;1.23;0.77;;;14.60;65.20;;;;;;5052037;28;20029;-76
2022/12/07 12:42:50;;;;;;;2.20;1.00;;;14.50;65.10;;;;;;5050561;28;20060;-76
2022/12/07 12:45:33;;;;;;;2.67;1.00;;;14.50;65.20;;;;;;5051899;28;20490;-76
2022/12/07 12:48:03;;;;;;;1.65;0.75;;;14.60;65.20;;;;;;5050643;28;20075;-76
2022/12/07 12:50:29;;;;;;;;;;;14.50;65.20;;;;;;5052378;28;20025;-76
2022/12/07 12:52:56;;;;;;;1.40;0.90;;;14.60;65.20;;;;;;5051872;28;20320;-76
2022/12/07 12:55:57;;;;;;;2.60;1.13;;;14.50;65.20;;;;;;5051891;28;20095;-76
2022/12/07 12:58:31;;;;;;;1.55;0.93;;;14.60;65.30;;;;;;5031931;28;20073;-76
2022/12/07 13:01:34;;;;;;;1.90;1.70;;;14.60;65.10;;;;;;5050625;28;20678;-76
2022/12/07 13:04:00;;;;;;;4.50;1.90;;;14.60;65.10;;;;;;5052031;28;20029;-76
2022/12/07 13:06:26;;;;;;;2.08;1.60;;;14.70;65.00;;;;;;5054221;28;20021;-76
2022/12/07 13:08:58;;;;;;;2.03;1.70;;;14.80;64.70;;;;;;5055526;28;20509;-76
2022/12/07 13:11:33;;;;;;;2.30;2.10;;;14.90;64.20;;;;;;5054258;28;20581;-76
2022/12/07 13:14:37;;;;;;;1.52;1.42;;;15.00;63.80;;;;;;5055475;28;20032;-76
2022/12/07 13:17:03;;;;;;;0.93;0.50;;;15.20;63.10;;;;;;5055105;28;20498;-76
2022/12/07 13:19:41;;;;;;;1.60;0.70;;;15.30;62.80;;;;;;5054105;28;20017;-76
2022/12/07 13:22:31;;;;;;;0.90;0.65;;;15.30;62.70;;;;;;5053992;28;20049;-76
2022/12/07 13:25:22;;;;;;;1.38;0.90;;;15.30;62.70;;;;;;5055193;28;20426;-75
2022/12/07 13:28:01;;;;;;;0.65;0.63;;;15.20;62.90;;;;;;5055166;28;20021;-76
2022/12/07 13:30:29;;;;;;;1.70;1.60;;;15.10;63.30;;;;;;5053884;28;20021;-76
2022/12/07 13:32:57;;;;;;;1.60;1.50;;;15.10;63.40;;;;;;5055073;28;20387;-76
2022/12/07 13:35:34;;;;;;;3.65;1.65;;;15.10;63.40;;;;;;5053693;28;20078;-75
2022/12/07 13:38:16;;;;;;;2.33;1.60;;;15.20;63.10;;;;;;5053709;28;20499;-75
2022/12/07 13:40:42;;;;;;;1.73;1.63;;;15.30;63.00;;;;;;5054955;28;20477;-75
2022/12/07 13:43:16;;;;;;;1.60;1.05;;;15.40;62.80;;;;;;5054920;28;20029;-75
2022/12/07 13:45:47;;;;;;;1.42;1.33;;;15.40;62.50;;;;;;5053630;28;20025;-76
2022/12/07 13:48:21;;;;;;;1.55;1.23;;;15.50;62.40;;;;;;5053683;28;20119;-75
2022/12/07 13:50:55;;;;;;;1.25;0.70;;;15.60;62.20;;;;;;5054739;28;20017;-75
2022/12/07 13:53:21;;;;;;;0.85;0.65;;;15.60;61.90;;;;;;5054607;28;20211;-75
2022/12/07 13:55:47;;;;;;;0.82;0.60;;;15.60;62.20;;;;;;5054632;28;20021;-76
2022/12/07 13:58:14;;;;;;;2.08;0.90;;;15.50;62.30;;;;;;5054467;28;20065;-75
2022/12/07 14:00:41;;;;;;;1.48;0.90;;;15.40;62.70;;;;;;5054529;28;20104;-75
2022/12/07 14:03:12;;;;;;;0.43;0.43;;;15.30;62.80;;;;;;5054452;28;20049;-75
2022/12/07 14:05:39;;;;;;;4.72;0.70;;;15.30;63.20;;;;;;5053192;28;20021;-75
2022/12/07 14:08:22;;;;;;;0.90;0.65;;;15.20;63.40;;;;;;5054460;28;20039;-75
2022/12/07 14:10:47;;;;;;;0.60;0.50;;;15.10;63.60;;;;;;5054742;28;20113;-75
2022/12/07 14:13:31;;;;;;;1.00;0.70;;;15.10;63.70;;;;;;5054363;28;20156;-76
2022/12/07 14:15:58;;;;;;;1.50;0.52;;;15.00;64.00;;;;;;5054205;28;20029;-76
2022/12/07 14:18:29;;;;;;;0.95;0.60;;;15.00;64.20;;;;;;5052728;28;20099;-76
2022/12/07 14:21:10;;;;;;;1.48;0.60;;;15.00;64.30;;;;;;5054252;28;20407;-75
2022/12/07 14:23:38;;;;;;;1.52;0.77;;;14.90;65.30;;;;;;5052864;28;20549;-75
2022/12/07 14:26:18;;;;;;;1.20;0.60;;;14.90;64.70;;;;;;5054268;28;20031;-76
2022/12/07 14:28:44;;;;;;;1.70;0.65;;;;;;;;;;5054088;28;20390;-75
2022/12/07 14:31:15;;;;;;;0.80;0.70;;;14.90;64.20;;;;;;5053916;28;20109;-75
2022/12/07 14:33:41;;;;;;;1.83;0.85;;;;;;;;;;5052613;28;20364;-76
2022/12/07 14:36:10;;;;;;;1.35;0.50;;;14.90;64.20;;;;;;5054102;28;20024;-76
2022/12/07 14:38:36;;;;;;;0.77;0.50;;;14.90;64.90;;;;;;5053679;28;20036;-76
2022/12/07 14:43:47;;;;;;;0.80;0.60;;;14.90;64.80;;;;;;5053988;28;20040;-77
2022/12/07 14:46:14;;;;;;;1.52;0.80;;;14.80;65.10;;;;;;5052439;28;20028;-76
2022/12/07 14:48:39;;;;;;;2.03;0.70;;;14.80;65.00;;;;;;5052291;28;20074;-76
2022/12/07 14:51:05;;;;;;;0.60;0.60;;;14.80;65.20;;;;;;5053529;28;20104;-78
2022/12/07 14:53:38;;;;;;;0.90;0.60;;;14.80;65.10;;;;;;5053481;28;20036;-77
2022/12/07 14:56:05;;;;;;;2.08;0.70;;;14.80;65.20;;;;;;5053755;28;20070;-77
2022/12/07 14:58:32;;;;;;;1.30;0.80;;;14.80;65.10;;;;;;5052030;28;20122;-77
2022/12/07 15:00:58;;;;;;;0.93;0.60;;;14.80;65.40;;;;;;5053409;28;20144;-77
2022/12/07 15:03:23;;;;;;;1.20;0.93;;;14.80;66.00;;;;;;5053658;28;20441;-77
2022/12/07 15:05:49;;;;;;;2.72;0.80;;;14.80;65.10;;;;;;5053270;28;20106;-77
2022/12/07 15:08:15;;;;;;;1.63;0.80;;;14.80;65.30;;;;;;5051896;28;20430;-77
2022/12/07 15:10:41;;;;;;;2.38;0.50;;;14.80;65.20;;;;;;5051846;28;20392;-77
2022/12/07 15:15:53;;;;;;;3.33;0.90;;;14.80;65.40;;;;;;5053402;28;20113;-78
2022/12/07 15:18:20;;;;;;;1.10;0.60;;;14.80;65.20;;;;;;5052815;28;20056;-81
2022/12/07 15:20:46;;;;;;;3.75;0.80;;;14.70;65.20;;;;;;5053016;28;20025;-80
2022/12/07 15:23:12;;;;;;;2.78;1.10;;;14.80;65.20;;;;;;5051762;28;20094;-80
2022/12/07 15:25:45;;;;;;;1.23;0.70;;;14.70;65.10;;;;;;5052936;28;20029;-81
2022/12/07 15:28:11;;;;;;;1.95;0.80;;;14.70;65.30;;;;;;5052672;28;20036;-81
2022/12/07 15:30:38;;;;;;;2.00;0.90;;;14.70;65.10;;;;;;5052795;28;20290;-82
2022/12/07 15:33:04;;;;;;;3.03;0.80;;;14.70;65.20;;;;;;5052744;28;20032;-81
2022/12/07 15:35:30;;;;;;;2.38;0.75;;;14.70;65.20;;;;;;5052756;28;20531;-81
2022/12/07 15:37:55;;;;;;;0.80;0.70;;;14.70;65.20;;;;;;5052666;28;20509;-78
2022/12/07 15:40:21;;;;;;;2.05;0.80;;;14.70;65.10;;;;;;5052733;28;20029;-77
2022/12/07 15:42:46;;;;;;;2.22;0.88;;;15.10;79.20;;;;;;5053073;28;20032;-75
2022/12/07 15:45:13;;;;;;;0.93;0.70;;;14.60;65.20;;;;;;5051365;28;20487;-77
2022/12/07 15:47:44;;;;;;;0.82;0.60;;;14.70;65.00;;;;;;5052655;28;20021;-77
2022/12/07 15:50:13;;;;;;;1.10;0.80;;;14.70;65.20;;;;;;5052645;28;20021;-77
2022/12/07 15:52:39;;;;;;;0.85;0.60;;;14.70;65.20;;;;;;5052435;28;20035;-77
2022/12/07 15:55:05;;;;;;;0.95;0.73;;;14.70;65.00;;;;;;5051169;28;20068;-77
2022/12/07 15:57:32;;;;;;;2.25;0.90;;;14.70;64.90;;;;;;5052619;28;20028;-77
2022/12/07 15:59:57;;;;;;;1.48;0.57;;;14.70;65.00;;;;;;5051011;28;20117;-77
2022/12/07 16:02:23;;;;;;;3.90;0.85;;;14.70;65.20;;;;;;5052322;28;20071;-77
2022/12/07 16:04:50;;;;;;;1.77;0.68;;;14.60;64.80;;;;;;5052186;28;20033;-77
2022/12/07 16:07:17;;;;;;;2.97;0.88;;;14.60;65.00;;;;;;5052257;28;20021;-77
2022/12/07 16:09:43;;;;;;;2.70;0.80;;;14.60;64.90;;;;;;5052303;28;20025;-78
2022/12/07 16:12:09;;;;;;;1.58;0.70;;;14.60;65.00;;;;;;5052161;28;20029;-77
2022/12/07 16:14:36;;;;;;;1.95;0.90;;;14.60;64.80;;;;;;5052169;28;20025;-78
2022/12/07 16:17:01;;;;;;;0.93;0.60;;;14.60;64.90;;;;;;5051903;28;20032;-78
2022/12/07 16:19:27;;;;;;;2.25;0.65;;;14.60;64.90;;;;;;5052142;28;20029;-78
2022/12/07 16:21:53;;;;;;;1.75;1.00;;;14.60;64.60;;;;;;5052128;28;20025;-78
2022/12/07 16:24:18;;;;;;;1.05;0.70;;;14.60;64.20;;;;;;5052165;28;20033;-78
2022/12/07 16:26:44;;;;;;;1.45;0.80;;;14.60;64.40;;;;;;5052173;28;20053;-78
2022/12/07 16:29:14;;;;;;;2.28;1.02;;;14.60;64.60;;;;;;5050741;28;20052;-78
2022/12/07 16:31:40;;;;;;;0.60;0.60;;;14.50;64.50;;;;;;5052143;28;20021;-84
2022/12/07 16:34:06;;;;;;;1.70;0.90;;;14.50;64.40;;;;;;5052091;28;20475;-78
2022/12/07 16:36:32;;;;;;;1.13;0.60;;;14.50;64.40;;;;;;5051956;28;20029;-78
2022/12/07 16:39:01;;;;;;;1.23;0.80;;;14.50;64.30;;;;;;5052200;28;20048;-78
2022/12/07 16:41:27;;;;;;;1.33;0.80;;;14.50;63.80;;;;;;5056037;28;20029;-78
2022/12/07 16:43:53;;;;;;;2.25;1.27;;;14.50;63.20;;;;;;5056005;28;20035;-79
2022/12/07 16:46:19;;;;;;;3.10;1.60;;;14.50;63.00;;;;;;5055980;28;20049;-78
2022/12/07 16:48:45;;;;;;;5.63;1.95;;;14.40;63.10;;;;;;5056167;28;20060;-78
2022/12/07 16:51:12;;;;;;;5.63;1.60;;;14.40;63.70;;;;;;5055794;28;20487;-78
2022/12/07 16:53:41;;;;;;;1.67;1.50;;;14.40;63.80;;;;;;5055719;28;20036;-78
2022/12/07 16:56:14;;;;;;;2.92;1.65;;;14.40;63.60;;;;;;5055698;28;20021;-78
2022/12/07 16:58:42;;;;;;;2.88;1.77;;;14.40;63.60;;;;;;5054379;28;20036;-79
2022/12/07 17:01:12;;;;;;;2.30;1.40;;;14.30;63.50;;;;;;5055634;28;20044;-78
2022/12/07 17:03:38;;;;;;;4.00;1.80;;;14.40;63.60;;;;;;5054273;28;20503;-78
2022/12/07 17:06:14;;;;;;;4.78;1.65;;;14.30;64.30;;;;;;5055543;28;20092;-78
2022/12/07 17:08:39;;;;;;;2.33;1.88;;;14.30;63.50;;;;;;5055629;28;20025;-79
2022/12/07 17:11:14;;;;;;;2.45;1.60;;;14.30;63.60;;;;;;5055552;28;20025;-78
2022/12/07 17:16:25;;;;;;;2.45;1.45;;;14.30;63.40;;;;;;5055415;28;20083;-78
2022/12/07 17:18:50;;;;;;;4.00;1.45;;;14.30;63.50;;;;;;5055137;28;20056;-78
2022/12/07 17:21:16;;;;;;;1.80;1.30;;;14.30;63.30;;;;;;5055407;28;20541;-78
2022/12/07 17:23:42;;;;;;;3.85;1.52;;;14.20;75.10;;;;;;5055123;28;20127;-79
2022/12/07 17:26:14;;;;;;;3.05;1.40;;;14.30;63.30;;;;;;5053940;28;20032;-77
2022/12/07 17:28:40;;;;;;;3.95;1.88;;;14.30;63.10;;;;;;5054992;28;20067;-78
2022/12/07 17:31:08;;;;;;;3.80;1.58;;;14.30;63.00;;;;;;5055015;28;20033;-77
2022/12/07 17:33:34;;;;;;;2.40;1.58;;;14.30;63.00;;;;;;5054808;28;20040;-77
2022/12/07 17:36:00;;;;;;;2.83;1.40;;;14.20;63.00;;;;;;5054851;28;20025;-77
2022/12/07 17:38:28;;;;;;;5.95;1.80;;;14.20;63.00;;;;;;5054700;28;20033;-77
2022/12/07 17:40:53;;;;;;;2.67;1.40;;;14.20;63.30;;;;;;5053552;28;20491;-77
2022/12/07 17:43:19;;;;;;;3.72;1.60;;;14.20;62.60;;;;;;5054779;28;20118;-77
2022/12/07 17:45:45;;;;;;;4.07;1.45;;;14.20;62.50;;;;;;5054798;28;20056;-77
2022/12/07 17:48:11;;;;;;;5.85;1.90;;;14.20;62.40;;;;;;5054768;28;20033;-78
2022/12/07 17:53:23;;;;;;;5.60;1.90;;;14.20;62.40;;;;;;5054393;28;20047;-77
2022/12/07 17:55:53;;;;;;;4.30;1.98;;;14.20;62.40;;;;;;5054458;28;20523;-77
2022/12/07 17:58:18;;;;;;;4.78;2.15;;;14.20;62.60;;;;;;5054621;28;20032;-77
2022/12/07 18:00:44;;;;;;;5.60;2.22;;;14.20;62.60;;;;;;5054293;28;20375;-77
2022/12/07 18:03:10;;;;;;;4.55;2.10;;;14.20;62.60;;;;;;5054313;28;20036;-80
2022/12/07 18:05:37;;;;;;;5.90;1.77;;;14.20;62.10;;;;;;5054374;28;20036;-81
2022/12/07 18:08:03;;;;;;;3.25;2.05;;;14.20;63.40;;;;;;5054205;28;20036;-81
2022/12/07 18:10:29;;;;;;;5.85;2.08;;;14.20;62.70;;;;;;5054151;28;20055;-80
2022/12/07 18:13:34;;;;;;;3.00;1.98;;;14.20;62.80;;;;;;5054177;28;20025;-80
2022/12/07 18:15:40;;;;;;;4.93;2.15;;;14.20;62.70;;;;;;5053862;28;20080;-80
2022/12/07 18:18:06;;;;;;;3.45;2.10;;;14.20;62.70;;;;;;5053782;28;20511;-80
2022/12/07 18:20:32;;;;;;;3.45;2.17;;;14.20;62.70;;;;;;5053997;28;20506;-80
2022/12/07 18:22:57;;;;;;;3.35;2.08;;;14.20;62.70;;;;;;5054016;28;20475;-78
2022/12/07 18:25:23;;;;;;;3.78;1.55;;;14.20;62.70;;;;;;5052726;28;20021;-77
2022/12/07 18:27:48;;;;;;;6.05;1.90;;;14.20;62.80;;;;;;5053876;28;20036;-77
2022/12/07 18:30:14;;;;;;;4.00;2.13;;;14.20;62.80;;;;;;5053815;28;20097;-76
2022/12/07 18:32:39;;;;;;;4.90;1.52;;;14.20;62.90;;;;;;5053620;28;20033;-76
2022/12/07 18:35:06;;;;;;;3.35;1.90;;;14.20;63.00;;;;;;5053702;28;20017;-76
2022/12/07 18:37:32;;;;;;;3.20;1.85;;;14.20;62.90;;;;;;5053458;28;20028;-77
2022/12/07 18:39:57;;;;;;;8.52;2.42;;;14.20;62.80;;;;;;5052229;28;20048;-77
2022/12/07 18:42:23;;;;;;;3.28;1.85;;;14.20;62.90;;;;;;5053840;28;20103;-77
2022/12/07 18:44:49;;;;;;;5.30;2.17;;;14.20;62.60;;;;;;5053469;28;20017;-77
2022/12/07 18:47:14;;;;;;;3.22;1.77;;;14.20;62.80;;;;;;5053556;28;20029;-77
2022/12/07 18:49:40;;;;;;;3.70;1.77;;;14.20;62.80;;;;;;5052148;28;20411;-77
2022/12/07 18:52:06;;;;;;;4.68;1.95;;;14.30;75.20;;;;;;5053365;28;20025;-77
2022/12/07 18:54:33;;;;;;;4.45;2.15;;;14.20;63.00;;;;;;5053610;28;20475;-77
2022/12/07 18:56:58;;;;;;;2.58;1.65;;;14.20;63.00;;;;;;5052106;28;20040;-77
2022/12/07 19:02:18;;;;;;;2.90;1.42;;;14.20;62.90;;;;;;5052038;28;20021;-77
2022/12/07 19:04:44;;;;;;;3.08;1.80;;;14.20;63.00;;;;;;5053220;28;20039;-77
2022/12/07 19:07:10;;;;;;;2.47;1.60;;;14.20;63.00;;;;;;5053400;28;20475;-77
2022/12/07 19:09:37;;;;;;;3.30;1.58;;;;;;;;;;5053245;28;20494;-77
2022/12/07 19:12:04;;;;;;;3.25;1.60;;;14.20;62.40;;;;;;5053259;28;20116;-77
2022/12/07 19:14:35;;;;;;;3.42;2.33;;;14.20;63.00;;;;;;5051933;28;20025;-77
2022/12/07 19:17:06;;;;;;;2.15;1.67;;;14.20;63.00;;;;;;5052983;28;20029;-77
2022/12/07 19:19:49;;;;;;;3.05;1.42;;;14.30;63.80;;;;;;5053106;28;20281;-77
2022/12/07 19:22:20;;;;;;;3.67;1.67;;;14.20;63.00;;;;;;5053200;28;20092;-77
2022/12/07 19:24:52;;;;;;;2.40;1.40;;;14.20;63.00;;;;;;5052956;28;20384;-77
2022/12/07 19:27:19;;;;;;;3.78;1.42;;;14.30;63.10;;;;;;5053303;28;20039;-77
2022/12/07 19:29:45;;;;;;;3.05;1.52;;;14.20;63.10;;;;;;5052896;28;20112;-77
2022/12/07 19:32:11;;;;;;;2.65;1.40;;;14.30;63.20;;;;;;5052830;28;20021;-77
2022/12/07 19:34:39;;;;;;;2.33;1.40;;;14.30;63.30;;;;;;5052821;28;20033;-77
2022/12/07 19:37:06;;;;;;;1.65;1.20;;;14.30;63.40;;;;;;5052696;28;20029;-77
2022/12/07 19:39:32;;;;;;;2.95;1.60;;;14.30;63.40;;;;;;5052603;28;20048;-77
2022/12/07 19:41:58;;;;;;;2.42;1.38;;;14.30;75.80;;;;;;5052615;28;20040;-77
2022/12/07 19:44:26;;;;;;;2.35;1.55;;;14.30;63.40;;;;;;5052711;28;20025;-77
2022/12/07 19:46:54;;;;;;;3.63;1.38;;;14.30;63.40;;;;;;5052357;28;20495;-77
2022/12/07 19:49:21;;;;;;;1.38;1.13;;;14.30;63.40;;;;;;5052925;28;20048;-77
2022/12/07 19:51:49;;;;;;;3.40;1.33;;;14.30;63.40;;;;;;5052393;28;20115;-77
2022/12/07 19:54:17;;;;;;;2.58;1.67;;;14.30;63.40;;;;;;5052352;28;20021;-78
2022/12/07 19:56:44;;;;;;;1.80;1.23;;;14.30;63.40;;;;;;5051194;28;20029;-78
2022/12/07 19:59:11;;;;;;;1.65;1.38;;;14.30;63.50;;;;;;5052193;28;20037;-79
2022/12/07 20:01:39;;;;;;;2.42;1.42;;;14.30;63.50;;;;;;5052528;28;20018;-79
2022/12/07 20:04:06;;;;;;;1.92;1.30;;;14.30;63.40;;;;;;5052339;28;20100;-78
2022/12/07 20:06:32;;;;;;;2.08;1.13;;;14.30;63.40;;;;;;5052334;28;20021;-79
2022/12/07 20:08:58;;;;;;;3.20;1.20;;;14.30;63.50;;;;;;5052383;28;20055;-80
2022/12/07 20:14:10;;;;;;;1.00;0.90;;;14.30;63.40;;;;;;5052450;28;20044;-80
2022/12/07 20:16:36;;;;;;;1.60;1.20;;;14.30;63.40;;;;;;5052252;28;20017;-78
2022/12/07 20:19:02;;;;;;;2.78;1.50;;;14.30;63.60;;;;;;5051808;28;20056;-79
2022/12/07 20:21:28;;;;;;;4.03;1.48;;;14.30;63.50;;;;;;5052134;28;20105;-79
2022/12/07 20:23:53;;;;;;;3.83;1.33;;;14.30;63.70;;;;;;5051930;28;20044;-80
2022/12/07 20:26:19;;;;;;;5.85;1.42;;;14.40;75.70;;;;;;5052057;28;20032;-81
2022/12/07 20:28:45;;;;;;;4.82;1.88;;;14.30;63.70;;;;;;5052320;28;20025;-79
2022/12/07 20:31:13;;;;;;;6.63;1.58;;;14.30;63.70;;;;;;5052442;28;20044;-76
2022/12/07 20:33:39;;;;;;;5.28;1.42;;;14.30;63.70;;;;;;5052473;28;20052;-76
2022/12/07 20:36:07;;;;;;;8.55;1.58;;;14.40;75.70;;;;;;5052437;28;20048;-77
2022/12/07 20:38:33;;;;;;;5.65;1.33;;;14.30;63.60;;;;;;5052264;28;20055;-77
2022/12/07 20:41:01;;;;;;;6.13;1.45;;;14.30;63.50;;;;;;5050969;28;20438;-77
2022/12/07 20:43:27;;;;;;;6.50;1.52;;;14.30;63.50;;;;;;5052195;28;20032;-76
2022/12/07 20:45:53;;;;;;;7.05;1.40;;;14.30;63.40;;;;;;5051971;28;20025;-78
2022/12/07 20:48:19;;;;;;;3.00;1.48;;;14.30;63.40;;;;;;5051942;28;20471;-77
2022/12/07 20:50:44;;;;;;;3.10;1.92;;;14.30;63.40;;;;;;5052091;28;20075;-79
2022/12/07 20:53:10;;;;;;;3.25;1.30;;;14.30;63.40;;;;;;5051876;28;20084;-79
2022/12/07 20:55:36;;;;;;;2.70;1.65;;;14.30;63.40;;;;;;5051927;28;20029;-79
2022/12/07 20:58:02;;;;;;;3.00;1.55;;;14.30;63.40;;;;;;5051752;28;20112;-79
2022/12/07 21:00:28;;;;;;;2.78;1.48;;;;;;;;;;5052255;28;20119;-79
2022/12/07 21:02:55;;;;;;;2.97;1.33;;;14.30;62.80;;;;;;5051828;28;20028;-79
2022/12/07 21:05:21;;;;;;;3.50;1.30;;;14.30;63.40;;;;;;5051733;28;20025;-80
2022/12/07 21:07:47;;;;;;;3.00;1.52;;;14.30;63.40;;;;;;5050533;28;20198;-77
2022/12/07 21:10:13;;;;;;;4.32;1.58;;;14.30;63.40;;;;;;5051789;28;20495;-82
2022/12/07 21:12:38;;;;;;;3.38;1.40;;;14.30;63.30;;;;;;5051542;28;20065;-76
2022/12/07 21:15:05;;;;;;;4.65;1.70;;;14.30;73.40;;;;;;5050192;28;20029;-76
2022/12/07 21:17:31;;;;;;;2.90;1.50;;;14.30;63.40;;;;;;5051174;28;20041;-77
2022/12/07 21:19:57;;;;;;;3.58;1.40;;;14.30;63.40;;;;;;5051391;28;20499;-76
2022/12/07 21:22:22;;;;;;;2.00;1.10;;;14.30;63.40;;;;;;5051443;28;20025;-76
2022/12/07 21:24:48;;;;;;;2.55;1.38;;;14.30;64.10;;;;;;5051526;28;20025;-76
2022/12/07 21:27:13;;;;;;;3.13;1.08;;;14.30;63.40;;;;;;5055159;28;20094;-78
2022/12/07 21:29:39;;;;;;;2.97;1.33;;;14.30;63.40;;;;;;5055181;28;20495;-78
2022/12/07 21:32:05;;;;;;;2.70;1.15;;;14.30;63.40;;;;;;5053976;28;20503;-78
2022/12/07 21:34:31;;;;;;;1.73;0.88;;;14.30;64.10;;;;;;5055134;28;20020;-78
2022/12/07 21:36:57;;;;;;;2.72;1.35;;;14.30;63.40;;;;;;5055180;28;20055;-79
2022/12/07 21:39:22;;;;;;;1.83;1.02;;;14.30;63.40;;;;;;5054913;28;20037;-79